createdAt,value
2023-02-14T00:01:43.190Z,19.63
2023-02-14T00:04:11.588Z,20.67
2023-02-14T00:06:40.291Z,21.23
2023-02-14T00:09:11.464Z,19.42
2023-02-14T00:11:40.362Z,18.20
2023-02-14T00:14:26.977Z,20.38
2023-02-14T00:16:56.566Z,17.63
2023-02-14T00:19:25.129Z,17.67
2023-02-14T00:21:53.419Z,19.58
2023-02-14T00:24:23.728Z,17.45
2023-02-14T00:26:52.719Z,20.15
2023-02-14T00:29:23.845Z,18.70
2023-02-14T00:31:52.903Z,17.13
2023-02-14T00:34:22.675Z,18.40
2023-02-14T00:36:50.905Z,20.73
2023-02-14T00:39:20.034Z,20.85
2023-02-14T00:41:48.598Z,20.40
2023-02-14T00:44:18.366Z,18.50
2023-02-14T00:46:46.634Z,20.23
2023-02-14T00:49:14.797Z,20.15
2023-02-14T00:51:44.433Z,19.98
2023-02-14T00:54:12.602Z,20.15
2023-02-14T00:56:40.834Z,17.27
2023-02-14T00:59:10.693Z,19.38
2023-02-14T01:01:39.276Z,17.75
2023-02-14T01:04:08.027Z,18.77
2023-02-14T01:06:36.599Z,18.58
2023-02-14T01:09:06.410Z,19.00
2023-02-14T01:11:34.882Z,19.67
2023-02-14T01:14:03.422Z,20.95
2023-02-14T01:16:32.605Z,21.38
2023-02-14T01:19:02.269Z,19.38
2023-02-14T01:21:32.340Z,21.27
2023-02-14T01:24:03.534Z,20.55
2023-02-14T01:26:33.666Z,19.92
2023-02-14T01:29:02.909Z,18.40
2023-02-14T01:31:32.690Z,20.92
2023-02-14T01:34:01.619Z,19.17
2023-02-14T01:36:34.619Z,19.30
2023-02-14T01:39:05.624Z,19.20
2023-02-14T01:41:37.056Z,19.42
2023-02-14T01:44:08.644Z,18.25
2023-02-14T01:46:38.668Z,20.30
2023-02-14T01:49:11.566Z,19.80
2023-02-14T01:51:45.084Z,17.92
2023-02-14T01:54:14.627Z,19.05
2023-02-14T01:56:49.018Z,18.98
2023-02-14T01:59:20.833Z,19.38
2023-02-14T02:01:51.425Z,18.77
2023-02-14T02:04:27.422Z,20.35
2023-02-14T02:07:01.030Z,19.58
2023-02-14T02:09:34.186Z,17.75
2023-02-14T02:12:04.921Z,20.15
2023-02-14T02:14:33.711Z,19.85
2023-02-14T02:17:17.969Z,19.80
2023-02-14T02:20:24.664Z,20.30
2023-02-14T02:23:26.762Z,18.17
2023-02-14T02:26:25.083Z,19.33
2023-02-14T02:29:33.850Z,21.35
2023-02-14T02:32:45.748Z,19.60
2023-02-14T02:35:24.436Z,18.88
2023-02-14T02:38:07.842Z,18.75
2023-02-14T02:40:48.635Z,19.67
2023-02-14T02:43:34.193Z,19.77
2023-02-14T02:46:23.600Z,19.48
2023-02-14T02:49:00.700Z,19.30
2023-02-14T02:51:54.393Z,19.50
2023-02-14T02:54:30.743Z,19.30
2023-02-14T02:57:02.052Z,20.55
2023-02-14T02:59:33.308Z,18.45
2023-02-14T03:02:07.638Z,18.00
2023-02-14T03:04:53.821Z,18.77
2023-02-14T03:07:36.654Z,19.95
2023-02-14T03:10:14.317Z,18.38
2023-02-14T03:13:19.462Z,19.02
2023-02-14T03:16:15.086Z,18.40
2023-02-14T03:19:16.361Z,18.08
2023-02-14T03:21:52.301Z,18.13
2023-02-14T03:24:29.367Z,17.27
2023-02-14T03:27:05.146Z,18.17
2023-02-14T03:29:44.803Z,17.17
2023-02-14T03:32:17.946Z,18.63
2023-02-14T03:34:54.570Z,19.23
2023-02-14T03:37:29.364Z,16.73
2023-02-14T03:40:07.550Z,17.25
2023-02-14T03:42:40.040Z,18.20
2023-02-14T03:45:14.192Z,18.40
2023-02-14T03:47:44.997Z,16.83
2023-02-14T03:50:18.292Z,16.80
2023-02-14T03:52:49.795Z,18.80
2023-02-14T03:55:26.660Z,17.80
2023-02-14T03:58:00.720Z,16.98
2023-02-14T04:00:31.513Z,16.75
2023-02-14T04:03:03.312Z,17.13
2023-02-14T04:05:32.219Z,18.05
2023-02-14T04:08:00.642Z,17.42
2023-02-14T04:10:30.464Z,17.27
2023-02-14T04:12:58.714Z,17.92
2023-02-14T04:15:26.979Z,16.17
2023-02-14T04:18:12.542Z,17.85
2023-02-14T04:20:40.809Z,17.60
2023-02-14T04:23:09.040Z,16.48
2023-02-14T04:25:40.046Z,15.57
2023-02-14T04:28:08.534Z,16.50
2023-02-14T04:30:36.772Z,15.55
2023-02-14T04:33:05.254Z,17.60
2023-02-14T04:35:33.486Z,17.80
2023-02-14T04:38:02.409Z,17.13
2023-02-14T04:40:30.684Z,15.95
2023-02-14T04:43:01.437Z,15.32
2023-02-14T04:45:29.663Z,15.65
2023-02-14T04:47:57.872Z,17.50
2023-02-14T04:50:26.553Z,17.55
2023-02-14T04:52:55.064Z,16.30
2023-02-14T04:55:23.243Z,16.50
2023-02-14T04:57:51.492Z,16.25
2023-02-14T05:00:22.300Z,16.17
2023-02-14T05:02:50.753Z,15.80
2023-02-14T05:05:19.276Z,17.90
2023-02-14T05:07:47.896Z,14.80
2023-02-14T05:10:16.352Z,14.80
2023-02-14T05:12:44.596Z,16.25
2023-02-14T05:15:13.124Z,15.55
2023-02-14T05:17:42.750Z,14.50
2023-02-14T05:20:11.575Z,15.32
2023-02-14T05:22:39.717Z,15.15
2023-02-14T05:25:08.268Z,17.55
2023-02-14T05:27:36.437Z,14.50
2023-02-14T05:30:05.171Z,16.70
2023-02-14T05:32:33.370Z,13.95
2023-02-14T05:35:02.964Z,16.10
2023-02-14T05:37:31.078Z,14.00
2023-02-14T05:39:59.242Z,15.02
2023-02-14T05:42:27.900Z,13.95
2023-02-14T05:44:56.280Z,14.13
2023-02-14T05:47:24.457Z,16.70
2023-02-14T05:49:52.610Z,16.95
2023-02-14T05:52:22.155Z,16.50
2023-02-14T05:54:50.420Z,15.25
2023-02-14T05:57:18.560Z,15.07
2023-02-14T05:59:46.895Z,14.25
2023-02-14T06:02:15.947Z,14.30
2023-02-14T06:04:44.220Z,15.02
2023-02-14T06:07:12.432Z,14.68
2023-02-14T06:09:42.225Z,16.27
2023-02-14T06:12:10.457Z,15.23
2023-02-14T06:14:38.695Z,16.63
2023-02-14T06:17:06.851Z,15.98
2023-02-14T06:19:35.014Z,15.32
2023-02-14T06:22:03.414Z,16.08
2023-02-14T06:24:31.750Z,15.52
2023-02-14T06:27:01.596Z,15.57
2023-02-14T06:29:29.868Z,15.77
2023-02-14T06:31:58.769Z,17.75
2023-02-14T06:34:27.092Z,17.55
2023-02-14T06:36:55.262Z,16.13
2023-02-14T06:39:23.589Z,17.45
2023-02-14T06:41:51.968Z,15.57
2023-02-14T06:44:21.814Z,17.77
2023-02-14T06:46:49.946Z,15.90
2023-02-14T06:49:18.201Z,18.95
2023-02-14T06:51:46.344Z,17.80
2023-02-14T06:54:14.875Z,16.33
2023-02-14T06:56:43.466Z,15.40
2023-02-14T06:59:11.723Z,15.98
2023-02-14T07:01:41.324Z,16.20
2023-02-14T07:04:09.673Z,16.35
2023-02-14T07:06:37.892Z,16.90
2023-02-14T07:09:07.300Z,17.40
2023-02-14T07:11:35.613Z,16.27
2023-02-14T07:14:03.750Z,15.77
2023-02-14T07:16:31.889Z,16.63
2023-02-14T07:19:01.494Z,18.00
2023-02-14T07:21:29.614Z,16.38
2023-02-14T07:23:57.799Z,16.75
2023-02-14T07:26:26.091Z,17.38
2023-02-14T07:28:54.345Z,17.40
2023-02-14T07:31:23.621Z,16.80
2023-02-14T07:33:52.513Z,16.73
2023-02-14T07:36:22.209Z,16.92
2023-02-14T07:38:50.450Z,17.20
2023-02-14T07:41:18.706Z,17.60
2023-02-14T07:43:46.890Z,17.27
2023-02-14T07:46:15.130Z,17.90
2023-02-14T07:48:43.396Z,16.45
2023-02-14T07:51:11.604Z,18.70
2023-02-14T07:53:41.349Z,16.52
2023-02-14T07:56:09.503Z,15.90
2023-02-14T07:58:37.730Z,15.45
2023-02-14T08:01:06.109Z,15.55
2023-02-14T08:03:34.256Z,16.23
2023-02-14T08:06:02.648Z,18.48
2023-02-14T08:08:32.595Z,19.02
2023-02-14T08:11:02.706Z,17.77
2023-02-14T08:13:31.588Z,16.30
2023-02-14T08:16:05.763Z,19.48
2023-02-14T08:18:35.897Z,18.70
2023-02-14T08:21:04.585Z,17.67
2023-02-14T08:23:32.851Z,18.52
2023-02-14T08:26:02.821Z,18.23
2023-02-14T08:28:33.183Z,17.42
2023-02-14T08:31:02.606Z,17.50
2023-02-14T08:33:31.092Z,15.43
2023-02-14T08:35:59.259Z,15.23
2023-02-14T08:38:27.536Z,14.13
2023-02-14T08:40:55.777Z,15.57
2023-02-14T08:43:25.410Z,15.50
2023-02-14T08:45:54.109Z,13.85
2023-02-14T08:48:23.615Z,13.35
2023-02-14T08:50:51.803Z,13.88
2023-02-14T08:53:22.088Z,14.30
2023-02-14T08:55:50.553Z,18.10
2023-02-14T08:58:18.880Z,16.30
2023-02-14T09:00:48.471Z,14.88
2023-02-14T09:03:16.713Z,14.50
2023-02-14T09:05:44.886Z,15.45
2023-02-14T09:08:13.176Z,16.35
2023-02-14T09:10:41.476Z,16.17
2023-02-14T09:13:09.710Z,15.88
2023-02-14T09:15:38.252Z,15.45
2023-02-14T09:18:07.912Z,14.73
2023-02-14T09:20:36.091Z,12.88
2023-02-14T09:23:04.443Z,13.60
2023-02-14T09:25:33.276Z,12.55
2023-02-14T09:28:01.697Z,14.60
2023-02-14T09:30:30.036Z,14.57
2023-02-14T09:32:58.347Z,14.52
2023-02-14T09:35:28.030Z,12.50
2023-02-14T09:37:56.647Z,13.82
2023-02-14T09:40:26.265Z,16.52
2023-02-14T09:43:03.787Z,15.15
2023-02-14T09:45:34.218Z,14.77
2023-02-14T09:48:06.898Z,13.45
2023-02-14T09:50:43.502Z,13.57
2023-02-14T09:53:24.011Z,16.52
2023-02-14T09:55:59.354Z,15.90
2023-02-14T09:58:34.696Z,15.07
2023-02-14T10:01:12.983Z,15.45
2023-02-14T10:04:07.554Z,16.23
2023-02-14T10:06:46.719Z,14.73
2023-02-14T10:09:33.990Z,14.55
2023-02-14T10:12:03.397Z,13.88
2023-02-14T10:14:40.914Z,13.75
2023-02-14T10:17:15.547Z,12.65
2023-02-14T10:19:49.953Z,13.85
2023-02-14T10:22:22.417Z,13.52
2023-02-14T10:24:56.108Z,12.60
2023-02-14T10:27:33.692Z,13.65
2023-02-14T10:30:03.521Z,12.38
2023-02-14T10:32:41.335Z,12.27
2023-02-14T10:35:24.806Z,12.45
2023-02-14T10:38:06.566Z,10.88
2023-02-14T10:40:55.073Z,11.95
2023-02-14T10:43:33.689Z,10.98
2023-02-14T10:46:13.726Z,14.80
2023-02-14T10:48:53.131Z,13.35
2023-02-14T10:51:33.858Z,12.85
2023-02-14T10:54:19.980Z,12.10
2023-02-14T10:56:53.687Z,12.98
2023-02-14T10:59:25.999Z,10.85
2023-02-14T11:01:56.102Z,11.95
2023-02-14T11:04:26.082Z,13.43
2023-02-14T11:06:54.809Z,11.88
2023-02-14T11:09:24.595Z,15.25
2023-02-14T11:11:54.839Z,12.00
2023-02-14T11:14:26.678Z,14.23
2023-02-14T11:16:55.970Z,12.27
2023-02-14T11:19:27.221Z,12.55
2023-02-14T11:21:56.885Z,12.95
2023-02-14T11:24:31.996Z,11.13
2023-02-14T11:27:02.973Z,12.18
2023-02-14T11:29:34.220Z,12.27
2023-02-14T11:32:09.937Z,13.20
2023-02-14T11:34:40.286Z,12.57
2023-02-14T11:37:26.156Z,12.60
2023-02-14T11:39:58.307Z,11.85
2023-02-14T11:42:45.439Z,13.00
2023-02-14T11:45:32.934Z,12.15
2023-02-14T11:48:24.793Z,11.95
2023-02-14T11:51:03.013Z,12.23
2023-02-14T11:53:41.064Z,9.90
2023-02-14T11:56:10.950Z,10.60
2023-02-14T11:58:42.337Z,11.43
2023-02-14T12:01:15.435Z,10.07
2023-02-14T12:03:47.757Z,10.23
2023-02-14T12:06:25.759Z,12.32
2023-02-14T12:09:12.534Z,10.45
2023-02-14T12:11:42.149Z,11.05
2023-02-14T12:14:23.078Z,11.45
2023-02-14T12:16:59.930Z,11.90
2023-02-14T12:19:35.873Z,11.32
2023-02-14T12:22:06.226Z,11.65
2023-02-14T12:24:39.447Z,10.82
2023-02-14T12:27:21.400Z,11.77
2023-02-14T12:29:54.595Z,12.13
2023-02-14T12:32:25.299Z,10.52
2023-02-14T12:34:59.215Z,10.55
2023-02-14T12:37:39.419Z,10.98
2023-02-14T12:40:16.607Z,10.65
2023-02-14T12:43:04.584Z,10.10
2023-02-14T12:45:53.450Z,10.18
2023-02-14T12:48:31.137Z,10.30
2023-02-14T12:51:06.174Z,11.57
2023-02-14T12:53:49.197Z,10.13
2023-02-14T12:56:26.501Z,11.30
2023-02-14T12:59:10.852Z,11.45
2023-02-14T13:02:03.357Z,11.05
2023-02-14T13:04:47.723Z,11.32
2023-02-14T13:07:26.370Z,12.63
2023-02-14T13:10:00.941Z,11.75
2023-02-14T13:12:37.228Z,11.60
2023-02-14T13:15:20.417Z,12.15
2023-02-14T13:17:54.577Z,12.40
2023-02-14T13:20:47.434Z,12.45
2023-02-14T13:23:20.194Z,12.05
2023-02-14T13:25:53.036Z,12.82
2023-02-14T13:28:21.829Z,12.35
2023-02-14T13:30:51.416Z,11.52
2023-02-14T13:33:29.320Z,11.93
2023-02-14T13:36:01.894Z,14.57
2023-02-14T13:38:32.293Z,13.40
2023-02-14T13:41:02.931Z,12.15
2023-02-14T13:43:52.541Z,13.30
2023-02-14T13:46:50.290Z,12.77
2023-02-14T13:49:32.869Z,11.90
2023-02-14T13:52:03.771Z,13.25
2023-02-14T13:54:41.245Z,13.63
2023-02-14T13:57:41.398Z,12.75
2023-02-14T14:00:44.661Z,11.77
2023-02-14T14:03:57.107Z,12.65
2023-02-14T14:06:25.392Z,13.93
2023-02-14T14:08:56.168Z,12.75
2023-02-14T14:11:52.231Z,11.93
2023-02-14T14:14:36.307Z,13.05
2023-02-14T14:17:20.631Z,13.13
2023-02-14T14:19:50.434Z,12.25
2023-02-14T14:22:19.927Z,11.73
2023-02-14T14:24:59.475Z,13.75
2023-02-14T14:27:33.185Z,12.98
2023-02-14T14:30:03.072Z,12.65
2023-02-14T14:32:33.183Z,13.10
2023-02-14T14:35:04.828Z,12.85
2023-02-14T14:37:34.430Z,13.18
2023-02-14T14:40:04.836Z,12.25
2023-02-14T14:42:37.217Z,13.02
2023-02-14T14:45:09.713Z,13.35
2023-02-14T14:47:44.179Z,12.77
2023-02-14T14:50:20.895Z,13.07
2023-02-14T14:52:52.458Z,12.00
2023-02-14T14:55:24.192Z,12.73
2023-02-14T14:57:53.821Z,13.32
2023-02-14T15:00:28.672Z,13.25
2023-02-14T15:03:04.069Z,12.98
2023-02-14T15:05:36.598Z,13.13
2023-02-14T15:08:16.493Z,14.15
2023-02-14T15:10:48.974Z,14.02
2023-02-14T15:13:43.486Z,13.68
2023-02-14T15:16:11.721Z,13.63
2023-02-14T15:18:40.663Z,13.43
2023-02-14T15:21:10.488Z,13.07
2023-02-14T15:23:38.913Z,14.52
2023-02-14T15:26:07.451Z,12.98
2023-02-14T15:28:38.612Z,13.02
2023-02-14T15:31:08.046Z,14.05
2023-02-14T15:33:37.261Z,14.38
2023-02-14T15:36:09.190Z,14.13
2023-02-14T15:38:43.183Z,12.80
2023-02-14T15:41:13.666Z,13.23
2023-02-14T15:43:43.303Z,13.45
2023-02-14T15:46:20.100Z,14.48
2023-02-14T15:48:49.199Z,13.30
2023-02-14T15:51:21.256Z,15.30
2023-02-14T15:53:54.650Z,15.18
2023-02-14T15:56:26.197Z,12.60
2023-02-14T15:59:01.233Z,13.13
2023-02-14T16:01:31.210Z,13.82
2023-02-14T16:04:02.908Z,14.80
2023-02-14T16:06:37.677Z,13.73
2023-02-14T16:09:24.101Z,14.02
2023-02-14T16:11:54.197Z,14.45
2023-02-14T16:14:31.866Z,12.68
2023-02-14T16:17:02.654Z,14.10
2023-02-14T16:19:36.379Z,13.15
2023-02-14T16:22:05.070Z,12.40
2023-02-14T16:24:36.034Z,13.65
2023-02-14T16:27:07.034Z,15.80
2023-02-14T16:29:36.860Z,15.95
2023-02-14T16:32:16.602Z,13.60
2023-02-14T16:34:47.547Z,12.57
2023-02-14T16:37:22.802Z,15.43
2023-02-14T16:39:56.700Z,13.68
2023-02-14T16:42:25.269Z,11.80
2023-02-14T16:44:53.726Z,16.77
2023-02-14T16:47:22.752Z,13.90
2023-02-14T16:49:53.154Z,13.23
2023-02-14T16:52:24.498Z,13.13
2023-02-14T16:54:54.559Z,13.77
2023-02-14T16:57:27.896Z,13.65
2023-02-14T16:59:57.585Z,12.05
2023-02-14T17:02:28.344Z,13.90
2023-02-14T17:04:57.155Z,13.85
2023-02-14T17:07:25.605Z,13.43
2023-02-14T17:09:59.590Z,11.60
2023-02-14T17:12:30.823Z,13.35
2023-02-14T17:15:06.029Z,13.90
2023-02-14T17:17:35.512Z,15.52
2023-02-14T17:20:04.751Z,13.25
2023-02-14T17:22:34.506Z,14.45
2023-02-14T17:25:04.242Z,13.88
2023-02-14T17:27:32.387Z,13.93
2023-02-14T17:30:00.684Z,13.63
2023-02-14T17:32:28.971Z,14.55
2023-02-14T17:34:57.532Z,15.00
2023-02-14T17:37:25.707Z,14.40
2023-02-14T17:39:54.145Z,11.65
2023-02-14T17:42:23.769Z,12.88
2023-02-14T17:44:51.984Z,14.40
2023-02-14T17:47:20.390Z,12.45
2023-02-14T17:49:48.658Z,14.07
2023-02-14T17:52:17.481Z,14.90
2023-02-14T17:54:45.876Z,13.05
2023-02-14T17:57:14.045Z,12.95
2023-02-14T17:59:45.316Z,15.27
2023-02-14T18:02:13.933Z,13.60
2023-02-14T18:04:42.220Z,14.75
2023-02-14T18:07:10.408Z,14.45
2023-02-14T18:09:38.878Z,14.85
2023-02-14T18:12:10.342Z,14.35
2023-02-14T18:14:43.439Z,16.55
2023-02-14T18:17:13.593Z,13.35
2023-02-14T18:19:41.892Z,15.75
2023-02-14T18:22:10.217Z,15.52
2023-02-14T18:24:38.393Z,15.57
2023-02-14T18:27:06.973Z,17.60
2023-02-14T18:29:36.516Z,16.45
2023-02-14T18:32:06.652Z,16.33
2023-02-14T18:34:38.097Z,17.90
2023-02-14T18:37:06.507Z,17.40
2023-02-14T18:39:34.705Z,15.15
2023-02-14T18:42:02.852Z,17.63
2023-02-14T18:44:31.183Z,15.52
2023-02-14T18:47:01.022Z,16.02
2023-02-14T18:49:30.599Z,15.00
2023-02-14T18:51:58.838Z,15.27
2023-02-14T18:54:27.129Z,14.18
2023-02-14T18:56:55.353Z,16.95
2023-02-14T18:59:23.571Z,17.42
2023-02-14T19:01:52.159Z,17.08
2023-02-14T19:04:20.375Z,14.13
2023-02-14T19:06:50.133Z,17.55
2023-02-14T19:09:18.797Z,18.15
2023-02-14T19:11:47.116Z,15.63
2023-02-14T19:14:15.373Z,17.25
2023-02-14T19:16:51.971Z,17.13
2023-02-14T19:19:22.932Z,15.93
2023-02-14T19:21:53.163Z,18.85
2023-02-14T19:24:23.120Z,15.27
2023-02-14T19:26:51.312Z,16.83
2023-02-14T19:29:21.782Z,15.25
2023-02-14T19:31:53.124Z,15.80
2023-02-14T19:34:23.182Z,16.55
2023-02-14T19:36:54.295Z,16.50
2023-02-14T19:39:23.096Z,19.08
2023-02-14T19:41:52.371Z,17.00
2023-02-14T19:44:20.605Z,16.98
2023-02-14T19:46:49.843Z,18.90
2023-02-14T19:49:20.687Z,16.77
2023-02-14T19:51:51.147Z,17.38
2023-02-14T19:54:21.987Z,19.15
2023-02-14T19:56:50.194Z,15.43
2023-02-14T19:59:22.604Z,19.67
2023-02-14T20:01:52.641Z,20.10
2023-02-14T20:04:24.148Z,18.52
2023-02-14T20:06:52.946Z,17.52
2023-02-14T20:09:22.930Z,18.13
2023-02-14T20:11:54.417Z,18.30
2023-02-14T20:14:24.087Z,16.75
2023-02-14T20:16:53.464Z,17.17
2023-02-14T20:19:26.999Z,23.17
2023-02-14T20:21:55.620Z,25.15
2023-02-14T20:24:28.208Z,19.45
2023-02-14T20:26:56.593Z,18.05
2023-02-14T20:29:26.486Z,18.20
2023-02-14T20:31:58.051Z,17.60
2023-02-14T20:34:26.990Z,17.27
2023-02-14T20:36:56.067Z,17.60
2023-02-14T20:39:30.957Z,18.38
2023-02-14T20:41:59.185Z,19.58
2023-02-14T20:44:27.762Z,22.40
2023-02-14T20:46:57.201Z,18.60
2023-02-14T20:49:27.312Z,19.27
2023-02-14T20:51:56.099Z,21.27
2023-02-14T20:54:27.374Z,18.88
2023-02-14T20:56:55.908Z,20.02
2023-02-14T20:59:27.177Z,20.23
2023-02-14T21:01:56.509Z,21.52
2023-02-14T21:04:25.645Z,21.85
2023-02-14T21:06:53.987Z,19.92
2023-02-14T21:09:22.218Z,21.75
2023-02-14T21:11:53.951Z,20.20
2023-02-14T21:14:22.284Z,21.63
2023-02-14T21:16:50.630Z,19.80
2023-02-14T21:19:18.963Z,19.50
2023-02-14T21:21:47.737Z,21.02
2023-02-14T21:24:17.897Z,20.95
2023-02-14T21:26:46.509Z,21.65
2023-02-14T21:29:16.565Z,21.73
2023-02-14T21:31:44.883Z,20.02
2023-02-14T21:34:16.246Z,22.63
2023-02-14T21:36:44.453Z,21.65
2023-02-14T21:39:12.676Z,20.67
2023-02-14T21:41:40.891Z,20.70
2023-02-14T21:44:09.073Z,20.48
2023-02-14T21:46:41.195Z,22.98
2023-02-14T21:49:27.056Z,22.70
2023-02-14T21:51:55.228Z,20.85
2023-02-14T21:54:23.496Z,21.00
2023-02-14T21:56:51.731Z,24.00
2023-02-14T21:59:19.946Z,21.70
2023-02-14T22:01:49.524Z,22.27
2023-02-14T22:04:17.727Z,22.65
2023-02-14T22:06:45.901Z,21.95
2023-02-14T22:09:17.435Z,23.45
2023-02-14T22:11:47.653Z,23.15
2023-02-14T22:14:16.203Z,23.83
2023-02-14T22:16:44.363Z,21.65
2023-02-14T22:19:16.319Z,22.48
2023-02-14T22:21:44.654Z,22.60
2023-02-14T22:24:13.750Z,22.00
2023-02-14T22:26:41.973Z,23.00
2023-02-14T22:29:12.035Z,22.67
2023-02-14T22:31:42.540Z,25.15
2023-02-14T22:34:14.348Z,27.08
2023-02-14T22:36:42.872Z,26.10
2023-02-14T22:39:14.419Z,26.23
2023-02-14T22:41:42.959Z,24.83
2023-02-14T22:44:11.169Z,27.52
2023-02-14T22:46:39.408Z,27.17
2023-02-14T22:49:08.264Z,26.25
2023-02-14T22:51:39.965Z,25.98
2023-02-14T22:54:10.328Z,27.50
2023-02-14T22:56:40.410Z,24.92
2023-02-14T22:59:14.583Z,27.00
2023-02-14T23:01:42.991Z,25.02
2023-02-14T23:04:11.462Z,24.80
2023-02-14T23:06:41.049Z,24.30
2023-02-14T23:09:11.124Z,25.48
2023-02-14T23:11:40.807Z,27.85
2023-02-14T23:14:26.993Z,24.88
2023-02-14T23:17:12.528Z,24.65
2023-02-14T23:19:58.296Z,25.50
2023-02-14T23:22:29.325Z,27.45
2023-02-14T23:24:59.869Z,26.45
2023-02-14T23:27:32.895Z,24.83
2023-02-14T23:30:01.523Z,23.60
2023-02-14T23:32:29.919Z,25.45
2023-02-14T23:34:59.571Z,25.85
2023-02-14T23:37:29.131Z,25.92
2023-02-14T23:39:57.358Z,26.40
2023-02-14T23:42:25.787Z,26.92
2023-02-14T23:44:54.099Z,25.20
2023-02-14T23:47:22.415Z,26.33
2023-02-14T23:49:50.625Z,26.30
2023-02-14T23:52:18.788Z,26.63
2023-02-14T23:54:48.368Z,28.35
2023-02-14T23:57:16.846Z,25.85
2023-02-14T23:59:45.146Z,26.90
